sensor_id;sensor_type;location;lat;lon;timestamp;P1;durP1;ratioP1;P2;durP2;ratioP2
22007;SDS011;11168;56.976;24.168;2023-10-13T00:00:28;8.63;;;1.67;;
22007;SDS011;11168;56.976;24.168;2023-10-13T00:03:07;6.32;;;1.60;;
22007;SDS011;11168;56.976;24.168;2023-10-13T00:05:42;8.48;;;1.48;;
22007;SDS011;11168;56.976;24.168;2023-10-13T00:08:10;6.60;;;1.27;;
22007;SDS011;11168;56.976;24.168;2023-10-13T00:10:38;11.15;;;1.60;;
22007;SDS011;11168;56.976;24.168;2023-10-13T00:13:05;10.52;;;1.75;;
22007;SDS011;11168;56.976;24.168;2023-10-13T00:15:39;10.20;;;1.35;;
22007;SDS011;11168;56.976;24.168;2023-10-13T00:18:12;7.38;;;1.50;;
22007;SDS011;11168;56.976;24.168;2023-10-13T00:20:40;10.07;;;1.48;;
22007;SDS011;11168;56.976;24.168;2023-10-13T00:23:15;7.00;;;1.30;;
22007;SDS011;11168;56.976;24.168;2023-10-13T00:25:49;8.32;;;1.08;;
22007;SDS011;11168;56.976;24.168;2023-10-13T00:28:16;8.00;;;1.55;;
22007;SDS011;11168;56.976;24.168;2023-10-13T00:30:50;8.43;;;1.25;;
22007;SDS011;11168;56.976;24.168;2023-10-13T00:33:19;10.38;;;1.35;;
22007;SDS011;11168;56.976;24.168;2023-10-13T00:35:49;10.77;;;1.60;;
22007;SDS011;11168;56.976;24.168;2023-10-13T00:38:18;6.93;;;1.52;;
22007;SDS011;11168;56.976;24.168;2023-10-13T00:40:45;10.32;;;1.20;;
22007;SDS011;11168;56.976;24.168;2023-10-13T00:43:19;5.45;;;1.27;;
22007;SDS011;11168;56.976;24.168;2023-10-13T00:45:50;10.15;;;1.15;;
22007;SDS011;11168;56.976;24.168;2023-10-13T00:48:25;10.65;;;1.45;;
22007;SDS011;11168;56.976;24.168;2023-10-13T00:51:01;8.88;;;1.60;;
22007;SDS011;11168;56.976;24.168;2023-10-13T00:53:44;10.45;;;1.42;;
22007;SDS011;11168;56.976;24.168;2023-10-13T00:56:16;5.32;;;1.20;;
22007;SDS011;11168;56.976;24.168;2023-10-13T00:58:48;9.15;;;1.52;;
22007;SDS011;11168;56.976;24.168;2023-10-13T01:01:19;6.03;;;1.23;;
22007;SDS011;11168;56.976;24.168;2023-10-13T01:03:55;10.07;;;1.48;;
22007;SDS011;11168;56.976;24.168;2023-10-13T01:06:28;4.20;;;1.08;;
22007;SDS011;11168;56.976;24.168;2023-10-13T01:08:59;7.07;;;1.13;;
22007;SDS011;11168;56.976;24.168;2023-10-13T01:11:42;7.10;;;1.63;;
22007;SDS011;11168;56.976;24.168;2023-10-13T01:14:14;8.35;;;1.58;;
22007;SDS011;11168;56.976;24.168;2023-10-13T01:16:44;8.80;;;1.17;;
22007;SDS011;11168;56.976;24.168;2023-10-13T01:19:13;9.07;;;1.30;;
22007;SDS011;11168;56.976;24.168;2023-10-13T01:21:46;7.57;;;1.27;;
22007;SDS011;11168;56.976;24.168;2023-10-13T01:24:14;8.95;;;1.50;;
22007;SDS011;11168;56.976;24.168;2023-10-13T01:26:44;6.97;;;1.30;;
22007;SDS011;11168;56.976;24.168;2023-10-13T01:29:11;10.00;;;1.33;;
22007;SDS011;11168;56.976;24.168;2023-10-13T01:31:42;6.40;;;1.27;;
22007;SDS011;11168;56.976;24.168;2023-10-13T01:36:46;5.97;;;1.42;;
22007;SDS011;11168;56.976;24.168;2023-10-13T01:39:13;5.03;;;1.10;;
22007;SDS011;11168;56.976;24.168;2023-10-13T01:41:43;8.13;;;1.40;;
22007;SDS011;11168;56.976;24.168;2023-10-13T01:44:10;7.40;;;1.73;;
22007;SDS011;11168;56.976;24.168;2023-10-13T01:46:41;5.20;;;1.10;;
22007;SDS011;11168;56.976;24.168;2023-10-13T01:49:12;10.88;;;1.50;;
22007;SDS011;11168;56.976;24.168;2023-10-13T01:51:39;8.23;;;1.48;;
22007;SDS011;11168;56.976;24.168;2023-10-13T01:54:06;9.52;;;1.50;;
22007;SDS011;11168;56.976;24.168;2023-10-13T01:56:38;10.88;;;1.52;;
22007;SDS011;11168;56.976;24.168;2023-10-13T01:59:11;6.45;;;1.40;;
22007;SDS011;11168;56.976;24.168;2023-10-13T02:01:39;12.77;;;1.77;;
22007;SDS011;11168;56.976;24.168;2023-10-13T02:04:10;7.18;;;1.58;;
22007;SDS011;11168;56.976;24.168;2023-10-13T02:06:39;7.00;;;1.50;;
22007;SDS011;11168;56.976;24.168;2023-10-13T02:09:07;6.40;;;1.40;;
22007;SDS011;11168;56.976;24.168;2023-10-13T02:11:44;6.30;;;1.40;;
22007;SDS011;11168;56.976;24.168;2023-10-13T02:16:43;9.48;;;1.35;;
22007;SDS011;11168;56.976;24.168;2023-10-13T02:19:14;12.75;;;1.40;;
22007;SDS011;11168;56.976;24.168;2023-10-13T02:21:42;8.68;;;1.40;;
22007;SDS011;11168;56.976;24.168;2023-10-13T02:24:11;9.07;;;1.30;;
22007;SDS011;11168;56.976;24.168;2023-10-13T02:26:45;6.93;;;1.15;;
22007;SDS011;11168;56.976;24.168;2023-10-13T02:29:12;6.93;;;1.50;;
22007;SDS011;11168;56.976;24.168;2023-10-13T02:31:41;8.60;;;1.70;;
22007;SDS011;11168;56.976;24.168;2023-10-13T02:34:09;9.52;;;1.95;;
22007;SDS011;11168;56.976;24.168;2023-10-13T02:36:38;12.68;;;1.70;;
22007;SDS011;11168;56.976;24.168;2023-10-13T02:39:21;9.38;;;1.60;;
22007;SDS011;11168;56.976;24.168;2023-10-13T02:41:54;15.25;;;1.63;;
22007;SDS011;11168;56.976;24.168;2023-10-13T02:44:22;6.40;;;1.52;;
22007;SDS011;11168;56.976;24.168;2023-10-13T02:46:58;10.38;;;1.75;;
22007;SDS011;11168;56.976;24.168;2023-10-13T02:49:26;6.78;;;1.42;;
22007;SDS011;11168;56.976;24.168;2023-10-13T02:51:54;8.75;;;1.60;;
22007;SDS011;11168;56.976;24.168;2023-10-13T02:54:22;9.52;;;1.80;;
22007;SDS011;11168;56.976;24.168;2023-10-13T02:56:56;9.48;;;1.90;;
22007;SDS011;11168;56.976;24.168;2023-10-13T02:59:26;9.00;;;1.50;;
22007;SDS011;11168;56.976;24.168;2023-10-13T03:02:12;6.13;;;1.50;;
22007;SDS011;11168;56.976;24.168;2023-10-13T03:04:57;13.95;;;2.20;;
22007;SDS011;11168;56.976;24.168;2023-10-13T03:07:38;8.23;;;1.50;;
22007;SDS011;11168;56.976;24.168;2023-10-13T03:10:09;7.22;;;1.75;;
22007;SDS011;11168;56.976;24.168;2023-10-13T03:12:37;8.20;;;1.73;;
22007;SDS011;11168;56.976;24.168;2023-10-13T03:15:05;6.60;;;1.55;;
22007;SDS011;11168;56.976;24.168;2023-10-13T03:20:14;5.57;;;1.33;;
22007;SDS011;11168;56.976;24.168;2023-10-13T03:22:48;6.25;;;1.35;;
22007;SDS011;11168;56.976;24.168;2023-10-13T03:25:18;6.40;;;1.70;;
22007;SDS011;11168;56.976;24.168;2023-10-13T03:27:55;11.65;;;1.63;;
22007;SDS011;11168;56.976;24.168;2023-10-13T03:30:27;10.15;;;1.73;;
22007;SDS011;11168;56.976;24.168;2023-10-13T03:33:02;13.40;;;1.90;;
22007;SDS011;11168;56.976;24.168;2023-10-13T03:35:34;7.68;;;1.75;;
22007;SDS011;11168;56.976;24.168;2023-10-13T03:38:04;7.22;;;1.83;;
22007;SDS011;11168;56.976;24.168;2023-10-13T03:40:43;7.40;;;1.65;;
22007;SDS011;11168;56.976;24.168;2023-10-13T03:43:34;6.60;;;1.42;;
22007;SDS011;11168;56.976;24.168;2023-10-13T03:46:12;11.88;;;1.60;;
22007;SDS011;11168;56.976;24.168;2023-10-13T03:48:39;13.30;;;2.08;;
22007;SDS011;11168;56.976;24.168;2023-10-13T03:51:21;8.45;;;1.60;;
22007;SDS011;11168;56.976;24.168;2023-10-13T03:53:49;9.48;;;1.58;;
22007;SDS011;11168;56.976;24.168;2023-10-13T03:56:24;10.50;;;1.80;;
22007;SDS011;11168;56.976;24.168;2023-10-13T03:58:59;6.57;;;1.73;;
22007;SDS011;11168;56.976;24.168;2023-10-13T04:01:32;10.07;;;2.63;;
22007;SDS011;11168;56.976;24.168;2023-10-13T04:04:15;11.60;;;2.28;;
22007;SDS011;11168;56.976;24.168;2023-10-13T04:07:03;9.38;;;1.83;;
22007;SDS011;11168;56.976;24.168;2023-10-13T04:09:36;9.93;;;2.00;;
22007;SDS011;11168;56.976;24.168;2023-10-13T04:12:05;11.60;;;2.30;;
22007;SDS011;11168;56.976;24.168;2023-10-13T04:14:40;13.50;;;2.50;;
22007;SDS011;11168;56.976;24.168;2023-10-13T04:17:26;12.43;;;2.40;;
22007;SDS011;11168;56.976;24.168;2023-10-13T04:19:54;12.52;;;2.20;;
22007;SDS011;11168;56.976;24.168;2023-10-13T04:22:35;10.82;;;2.40;;
22007;SDS011;11168;56.976;24.168;2023-10-13T04:25:14;14.05;;;2.97;;
22007;SDS011;11168;56.976;24.168;2023-10-13T04:28:04;11.23;;;2.80;;
22007;SDS011;11168;56.976;24.168;2023-10-13T04:30:44;7.40;;;2.63;;
22007;SDS011;11168;56.976;24.168;2023-10-13T04:33:28;12.98;;;3.28;;
22007;SDS011;11168;56.976;24.168;2023-10-13T04:36:06;9.73;;;3.22;;
22007;SDS011;11168;56.976;24.168;2023-10-13T04:38:43;10.23;;;3.43;;
22007;SDS011;11168;56.976;24.168;2023-10-13T04:41:29;15.02;;;3.20;;
22007;SDS011;11168;56.976;24.168;2023-10-13T04:44:16;10.45;;;2.90;;
22007;SDS011;11168;56.976;24.168;2023-10-13T04:46:56;13.93;;;3.00;;
22007;SDS011;11168;56.976;24.168;2023-10-13T04:49:28;15.30;;;2.88;;
22007;SDS011;11168;56.976;24.168;2023-10-13T04:52:03;10.90;;;2.58;;
22007;SDS011;11168;56.976;24.168;2023-10-13T04:54:45;15.75;;;2.45;;
22007;SDS011;11168;56.976;24.168;2023-10-13T04:57:15;12.63;;;2.60;;
22007;SDS011;11168;56.976;24.168;2023-10-13T04:59:59;14.27;;;2.55;;
22007;SDS011;11168;56.976;24.168;2023-10-13T05:02:38;13.65;;;2.63;;
22007;SDS011;11168;56.976;24.168;2023-10-13T05:05:10;14.23;;;3.28;;
22007;SDS011;11168;56.976;24.168;2023-10-13T05:07:45;12.65;;;2.83;;
22007;SDS011;11168;56.976;24.168;2023-10-13T05:10:31;11.05;;;3.25;;
22007;SDS011;11168;56.976;24.168;2023-10-13T05:13:18;12.57;;;3.15;;
22007;SDS011;11168;56.976;24.168;2023-10-13T05:16:04;12.88;;;3.10;;
22007;SDS011;11168;56.976;24.168;2023-10-13T05:18:51;18.88;;;3.50;;
22007;SDS011;11168;56.976;24.168;2023-10-13T05:21:37;12.80;;;3.63;;
22007;SDS011;11168;56.976;24.168;2023-10-13T05:24:23;19.20;;;3.30;;
22007;SDS011;11168;56.976;24.168;2023-10-13T05:27:09;17.02;;;3.60;;
22007;SDS011;11168;56.976;24.168;2023-10-13T05:29:54;16.30;;;3.65;;
22007;SDS011;11168;56.976;24.168;2023-10-13T05:32:40;16.42;;;3.80;;
22007;SDS011;11168;56.976;24.168;2023-10-13T05:35:25;14.10;;;3.75;;
22007;SDS011;11168;56.976;24.168;2023-10-13T05:38:11;14.45;;;3.85;;
22007;SDS011;11168;56.976;24.168;2023-10-13T05:40:57;14.88;;;4.07;;
22007;SDS011;11168;56.976;24.168;2023-10-13T05:43:51;15.05;;;3.65;;
22007;SDS011;11168;56.976;24.168;2023-10-13T05:46:37;17.73;;;3.78;;
22007;SDS011;11168;56.976;24.168;2023-10-13T05:49:08;19.15;;;4.80;;
22007;SDS011;11168;56.976;24.168;2023-10-13T05:51:35;16.90;;;4.20;;
22007;SDS011;11168;56.976;24.168;2023-10-13T05:54:03;15.52;;;4.78;;
22007;SDS011;11168;56.976;24.168;2023-10-13T05:59:28;18.17;;;4.20;;
22007;SDS011;11168;56.976;24.168;2023-10-13T06:02:15;17.13;;;4.65;;
22007;SDS011;11168;56.976;24.168;2023-10-13T06:05:02;14.90;;;4.38;;
22007;SDS011;11168;56.976;24.168;2023-10-13T06:07:49;13.88;;;4.03;;
22007;SDS011;11168;56.976;24.168;2023-10-13T06:10:34;15.73;;;4.25;;
22007;SDS011;11168;56.976;24.168;2023-10-13T06:13:20;10.05;;;3.65;;
22007;SDS011;11168;56.976;24.168;2023-10-13T06:16:07;16.67;;;3.95;;
22007;SDS011;11168;56.976;24.168;2023-10-13T06:18:57;18.15;;;3.85;;
22007;SDS011;11168;56.976;24.168;2023-10-13T06:21:43;13.68;;;4.32;;
22007;SDS011;11168;56.976;24.168;2023-10-13T06:24:29;17.08;;;4.25;;
22007;SDS011;11168;56.976;24.168;2023-10-13T06:27:15;17.48;;;4.05;;
22007;SDS011;11168;56.976;24.168;2023-10-13T06:30:02;16.23;;;3.97;;
22007;SDS011;11168;56.976;24.168;2023-10-13T06:32:31;18.92;;;4.28;;
22007;SDS011;11168;56.976;24.168;2023-10-13T06:34:59;18.45;;;4.25;;
22007;SDS011;11168;56.976;24.168;2023-10-13T06:37:50;18.45;;;4.60;;
22007;SDS011;11168;56.976;24.168;2023-10-13T06:40:17;14.75;;;4.28;;
22007;SDS011;11168;56.976;24.168;2023-10-13T06:42:48;21.40;;;4.03;;
22007;SDS011;11168;56.976;24.168;2023-10-13T06:45:15;16.50;;;5.00;;
22007;SDS011;11168;56.976;24.168;2023-10-13T06:47:45;18.30;;;4.32;;
22007;SDS011;11168;56.976;24.168;2023-10-13T06:50:12;12.50;;;3.60;;
22007;SDS011;11168;56.976;24.168;2023-10-13T06:52:46;14.45;;;3.75;;
22007;SDS011;11168;56.976;24.168;2023-10-13T06:55:13;15.80;;;4.38;;
22007;SDS011;11168;56.976;24.168;2023-10-13T06:57:43;11.77;;;3.80;;
22007;SDS011;11168;56.976;24.168;2023-10-13T07:00:11;17.60;;;3.80;;
22007;SDS011;11168;56.976;24.168;2023-10-13T07:03:01;15.23;;;4.03;;
22007;SDS011;11168;56.976;24.168;2023-10-13T07:05:47;17.98;;;3.80;;
22007;SDS011;11168;56.976;24.168;2023-10-13T07:08:15;14.60;;;3.50;;
22007;SDS011;11168;56.976;24.168;2023-10-13T07:10:51;13.93;;;3.55;;
22007;SDS011;11168;56.976;24.168;2023-10-13T07:13:38;17.58;;;3.63;;
22007;SDS011;11168;56.976;24.168;2023-10-13T07:16:06;14.75;;;3.92;;
22007;SDS011;11168;56.976;24.168;2023-10-13T07:18:54;18.73;;;3.70;;
22007;SDS011;11168;56.976;24.168;2023-10-13T07:21:21;16.00;;;3.47;;
22007;SDS011;11168;56.976;24.168;2023-10-13T07:23:58;15.70;;;2.85;;
22007;SDS011;11168;56.976;24.168;2023-10-13T07:26:35;12.23;;;3.35;;
22007;SDS011;11168;56.976;24.168;2023-10-13T07:29:10;17.70;;;3.72;;
22007;SDS011;11168;56.976;24.168;2023-10-13T07:31:38;23.38;;;4.18;;
22007;SDS011;11168;56.976;24.168;2023-10-13T07:34:12;15.23;;;3.17;;
22007;SDS011;11168;56.976;24.168;2023-10-13T07:36:50;13.50;;;3.63;;
22007;SDS011;11168;56.976;24.168;2023-10-13T07:39:34;13.77;;;3.08;;
22007;SDS011;11168;56.976;24.168;2023-10-13T07:42:04;10.55;;;2.95;;
22007;SDS011;11168;56.976;24.168;2023-10-13T07:44:32;12.07;;;3.10;;
22007;SDS011;11168;56.976;24.168;2023-10-13T07:47:06;17.25;;;3.13;;
22007;SDS011;11168;56.976;24.168;2023-10-13T07:49:38;12.45;;;3.53;;
22007;SDS011;11168;56.976;24.168;2023-10-13T07:52:07;15.40;;;3.53;;
22007;SDS011;11168;56.976;24.168;2023-10-13T07:54:50;14.23;;;3.17;;
22007;SDS011;11168;56.976;24.168;2023-10-13T07:57:38;11.63;;;2.58;;
22007;SDS011;11168;56.976;24.168;2023-10-13T08:00:24;15.70;;;3.25;;
22007;SDS011;11168;56.976;24.168;2023-10-13T08:03:13;14.90;;;4.38;;
22007;SDS011;11168;56.976;24.168;2023-10-13T08:05:40;11.38;;;3.08;;
22007;SDS011;11168;56.976;24.168;2023-10-13T08:08:47;16.83;;;3.30;;
22007;SDS011;11168;56.976;24.168;2023-10-13T08:11:20;16.25;;;3.35;;
22007;SDS011;11168;56.976;24.168;2023-10-13T08:13:53;12.27;;;3.05;;
22007;SDS011;11168;56.976;24.168;2023-10-13T08:16:38;13.13;;;3.38;;
22007;SDS011;11168;56.976;24.168;2023-10-13T08:19:22;12.48;;;3.53;;
22007;SDS011;11168;56.976;24.168;2023-10-13T08:21:54;11.18;;;3.30;;
22007;SDS011;11168;56.976;24.168;2023-10-13T08:24:27;12.20;;;3.38;;
22007;SDS011;11168;56.976;24.168;2023-10-13T08:27:04;9.15;;;2.65;;
22007;SDS011;11168;56.976;24.168;2023-10-13T08:29:42;14.38;;;3.08;;
22007;SDS011;11168;56.976;24.168;2023-10-13T08:34:59;13.52;;;2.63;;
22007;SDS011;11168;56.976;24.168;2023-10-13T08:37:30;9.40;;;2.42;;
22007;SDS011;11168;56.976;24.168;2023-10-13T08:40:13;12.77;;;2.95;;
22007;SDS011;11168;56.976;24.168;2023-10-13T08:43:06;10.52;;;2.45;;
22007;SDS011;11168;56.976;24.168;2023-10-13T08:45:41;12.30;;;2.58;;
22007;SDS011;11168;56.976;24.168;2023-10-13T08:48:10;13.98;;;3.10;;
22007;SDS011;11168;56.976;24.168;2023-10-13T08:50:39;12.18;;;2.70;;
22007;SDS011;11168;56.976;24.168;2023-10-13T08:56:04;14.65;;;2.85;;
22007;SDS011;11168;56.976;24.168;2023-10-13T08:58:54;10.73;;;2.90;;
22007;SDS011;11168;56.976;24.168;2023-10-13T09:01:26;16.48;;;3.47;;
22007;SDS011;11168;56.976;24.168;2023-10-13T09:04:18;10.23;;;2.88;;
22007;SDS011;11168;56.976;24.168;2023-10-13T09:06:50;12.90;;;3.17;;
22007;SDS011;11168;56.976;24.168;2023-10-13T09:09:27;7.97;;;2.75;;
22007;SDS011;11168;56.976;24.168;2023-10-13T09:14:52;10.85;;;2.60;;
22007;SDS011;11168;56.976;24.168;2023-10-13T09:17:24;13.50;;;3.28;;
22007;SDS011;11168;56.976;24.168;2023-10-13T09:20:05;11.25;;;2.38;;
22007;SDS011;11168;56.976;24.168;2023-10-13T09:22:49;12.35;;;2.80;;
22007;SDS011;11168;56.976;24.168;2023-10-13T09:25:33;10.63;;;2.60;;
22007;SDS011;11168;56.976;24.168;2023-10-13T09:28:11;12.13;;;3.00;;
22007;SDS011;11168;56.976;24.168;2023-10-13T09:30:45;12.05;;;2.60;;
22007;SDS011;11168;56.976;24.168;2023-10-13T09:35:46;12.15;;;2.75;;
22007;SDS011;11168;56.976;24.168;2023-10-13T09:38:16;12.45;;;2.50;;
22007;SDS011;11168;56.976;24.168;2023-10-13T09:40:44;10.40;;;2.50;;
22007;SDS011;11168;56.976;24.168;2023-10-13T09:43:19;13.20;;;2.15;;
22007;SDS011;11168;56.976;24.168;2023-10-13T09:45:48;14.68;;;2.42;;
22007;SDS011;11168;56.976;24.168;2023-10-13T09:48:45;9.23;;;2.33;;
22007;SDS011;11168;56.976;24.168;2023-10-13T09:51:30;8.57;;;2.15;;
22007;SDS011;11168;56.976;24.168;2023-10-13T09:54:03;12.98;;;2.65;;
22007;SDS011;11168;56.976;24.168;2023-10-13T09:57:00;13.35;;;2.70;;
22007;SDS011;11168;56.976;24.168;2023-10-13T09:59:44;9.65;;;2.17;;
22007;SDS011;11168;56.976;24.168;2023-10-13T10:02:19;11.68;;;1.90;;
22007;SDS011;11168;56.976;24.168;2023-10-13T10:04:56;10.95;;;2.38;;
22007;SDS011;11168;56.976;24.168;2023-10-13T10:07:57;9.95;;;2.58;;
22007;SDS011;11168;56.976;24.168;2023-10-13T10:13:40;13.02;;;2.42;;
22007;SDS011;11168;56.976;24.168;2023-10-13T10:19:29;14.50;;;2.78;;
22007;SDS011;11168;56.976;24.168;2023-10-13T10:22:03;10.00;;;2.55;;
22007;SDS011;11168;56.976;24.168;2023-10-13T10:24:43;11.25;;;2.63;;
22007;SDS011;11168;56.976;24.168;2023-10-13T10:27:10;10.88;;;2.65;;
22007;SDS011;11168;56.976;24.168;2023-10-13T10:29:53;10.73;;;2.70;;
22007;SDS011;11168;56.976;24.168;2023-10-13T10:32:20;13.23;;;2.45;;
22007;SDS011;11168;56.976;24.168;2023-10-13T10:34:48;10.93;;;2.75;;
22007;SDS011;11168;56.976;24.168;2023-10-13T10:37:15;16.88;;;2.90;;
22007;SDS011;11168;56.976;24.168;2023-10-13T10:39:42;9.77;;;2.70;;
22007;SDS011;11168;56.976;24.168;2023-10-13T10:42:13;9.50;;;2.20;;
22007;SDS011;11168;56.976;24.168;2023-10-13T10:44:55;8.73;;;2.20;;
22007;SDS011;11168;56.976;24.168;2023-10-13T10:47:24;8.90;;;2.13;;
22007;SDS011;11168;56.976;24.168;2023-10-13T10:49:58;7.05;;;1.50;;
22007;SDS011;11168;56.976;24.168;2023-10-13T10:52:33;10.65;;;1.98;;
22007;SDS011;11168;56.976;24.168;2023-10-13T10:55:06;9.10;;;1.80;;
22007;SDS011;11168;56.976;24.168;2023-10-13T10:57:59;6.85;;;2.00;;
22007;SDS011;11168;56.976;24.168;2023-10-13T11:05:55;7.03;;;2.30;;
22007;SDS011;11168;56.976;24.168;2023-10-13T11:08:26;11.00;;;2.63;;
22007;SDS011;11168;56.976;24.168;2023-10-13T11:11:04;14.57;;;2.47;;
22007;SDS011;11168;56.976;24.168;2023-10-13T11:13:41;9.20;;;2.38;;
22007;SDS011;11168;56.976;24.168;2023-10-13T11:16:21;10.60;;;2.35;;
22007;SDS011;11168;56.976;24.168;2023-10-13T11:19:03;7.70;;;2.00;;
22007;SDS011;11168;56.976;24.168;2023-10-13T11:21:34;9.70;;;3.10;;
22007;SDS011;11168;56.976;24.168;2023-10-13T11:24:04;9.30;;;3.13;;
22007;SDS011;11168;56.976;24.168;2023-10-13T11:26:38;11.70;;;3.15;;
22007;SDS011;11168;56.976;24.168;2023-10-13T11:29:31;11.27;;;3.63;;
22007;SDS011;11168;56.976;24.168;2023-10-13T11:32:02;9.38;;;3.97;;
22007;SDS011;11168;56.976;24.168;2023-10-13T11:34:30;10.60;;;3.05;;
22007;SDS011;11168;56.976;24.168;2023-10-13T11:37:06;7.88;;;2.13;;
22007;SDS011;11168;56.976;24.168;2023-10-13T11:39:52;9.43;;;2.35;;
22007;SDS011;11168;56.976;24.168;2023-10-13T11:42:20;13.20;;;2.38;;
22007;SDS011;11168;56.976;24.168;2023-10-13T11:44:47;11.07;;;2.28;;
22007;SDS011;11168;56.976;24.168;2023-10-13T11:47:27;6.68;;;1.88;;
22007;SDS011;11168;56.976;24.168;2023-10-13T11:50:13;9.43;;;2.13;;
22007;SDS011;11168;56.976;24.168;2023-10-13T11:52:53;12.68;;;2.53;;
22007;SDS011;11168;56.976;24.168;2023-10-13T11:55:20;9.73;;;2.10;;
22007;SDS011;11168;56.976;24.168;2023-10-13T11:57:47;12.43;;;3.00;;
22007;SDS011;11168;56.976;24.168;2023-10-13T12:00:15;10.90;;;2.33;;
22007;SDS011;11168;56.976;24.168;2023-10-13T12:02:53;7.97;;;2.08;;
22007;SDS011;11168;56.976;24.168;2023-10-13T12:05:38;9.50;;;2.20;;
22007;SDS011;11168;56.976;24.168;2023-10-13T12:08:16;11.57;;;2.00;;
22007;SDS011;11168;56.976;24.168;2023-10-13T12:10:49;9.60;;;2.47;;
22007;SDS011;11168;56.976;24.168;2023-10-13T12:13:26;11.48;;;2.17;;
22007;SDS011;11168;56.976;24.168;2023-10-13T12:15:55;10.68;;;2.17;;
22007;SDS011;11168;56.976;24.168;2023-10-13T12:18:23;8.77;;;2.22;;
22007;SDS011;11168;56.976;24.168;2023-10-13T12:20:53;12.60;;;2.38;;
22007;SDS011;11168;56.976;24.168;2023-10-13T12:23:20;10.10;;;2.58;;
22007;SDS011;11168;56.976;24.168;2023-10-13T12:25:58;11.88;;;2.53;;
22007;SDS011;11168;56.976;24.168;2023-10-13T12:28:26;12.50;;;2.50;;
22007;SDS011;11168;56.976;24.168;2023-10-13T12:30:55;9.05;;;2.28;;
22007;SDS011;11168;56.976;24.168;2023-10-13T12:33:28;11.27;;;2.35;;
22007;SDS011;11168;56.976;24.168;2023-10-13T12:36:05;8.20;;;2.47;;
22007;SDS011;11168;56.976;24.168;2023-10-13T12:38:53;9.10;;;1.88;;
22007;SDS011;11168;56.976;24.168;2023-10-13T12:41:50;15.30;;;2.35;;
22007;SDS011;11168;56.976;24.168;2023-10-13T12:44:35;11.75;;;2.15;;
22007;SDS011;11168;56.976;24.168;2023-10-13T12:47:21;18.33;;;3.30;;
22007;SDS011;11168;56.976;24.168;2023-10-13T12:50:08;13.20;;;2.50;;
22007;SDS011;11168;56.976;24.168;2023-10-13T12:52:40;18.35;;;3.13;;
22007;SDS011;11168;56.976;24.168;2023-10-13T12:55:12;16.30;;;2.78;;
22007;SDS011;11168;56.976;24.168;2023-10-13T12:57:41;12.73;;;2.88;;
22007;SDS011;11168;56.976;24.168;2023-10-13T13:00:12;16.02;;;2.80;;
22007;SDS011;11168;56.976;24.168;2023-10-13T13:03:00;15.98;;;2.60;;
22007;SDS011;11168;56.976;24.168;2023-10-13T13:05:27;18.75;;;2.90;;
22007;SDS011;11168;56.976;24.168;2023-10-13T13:07:57;17.75;;;2.67;;
22007;SDS011;11168;56.976;24.168;2023-10-13T13:10:25;13.90;;;2.55;;
22007;SDS011;11168;56.976;24.168;2023-10-13T13:13:02;12.75;;;2.80;;
22007;SDS011;11168;56.976;24.168;2023-10-13T13:15:31;17.15;;;3.05;;
22007;SDS011;11168;56.976;24.168;2023-10-13T13:17:58;14.63;;;3.05;;
22007;SDS011;11168;56.976;24.168;2023-10-13T13:20:37;20.35;;;2.92;;
22007;SDS011;11168;56.976;24.168;2023-10-13T13:23:23;16.02;;;3.10;;
22007;SDS011;11168;56.976;24.168;2023-10-13T13:25:53;13.02;;;3.05;;
22007;SDS011;11168;56.976;24.168;2023-10-13T13:30:56;14.45;;;2.88;;
22007;SDS011;11168;56.976;24.168;2023-10-13T13:33:23;14.95;;;2.88;;
22007;SDS011;11168;56.976;24.168;2023-10-13T13:35:55;9.65;;;2.30;;
22007;SDS011;11168;56.976;24.168;2023-10-13T13:38:26;12.15;;;2.78;;
22007;SDS011;11168;56.976;24.168;2023-10-13T13:40:59;16.05;;;2.58;;
22007;SDS011;11168;56.976;24.168;2023-10-13T13:43:31;12.73;;;3.10;;
22007;SDS011;11168;56.976;24.168;2023-10-13T13:46:05;15.25;;;2.72;;
22007;SDS011;11168;56.976;24.168;2023-10-13T13:48:36;14.23;;;2.70;;
22007;SDS011;11168;56.976;24.168;2023-10-13T13:51:04;11.10;;;2.63;;
22007;SDS011;11168;56.976;24.168;2023-10-13T13:53:40;11.40;;;2.50;;
22007;SDS011;11168;56.976;24.168;2023-10-13T13:56:15;14.00;;;3.35;;
22007;SDS011;11168;56.976;24.168;2023-10-13T13:58:49;18.20;;;3.80;;
22007;SDS011;11168;56.976;24.168;2023-10-13T14:01:34;13.43;;;3.20;;
22007;SDS011;11168;56.976;24.168;2023-10-13T14:04:04;14.07;;;3.28;;
22007;SDS011;11168;56.976;24.168;2023-10-13T14:06:33;18.20;;;3.47;;
22007;SDS011;11168;56.976;24.168;2023-10-13T14:09:01;17.17;;;3.20;;
22007;SDS011;11168;56.976;24.168;2023-10-13T14:11:59;14.18;;;3.80;;
22007;SDS011;11168;56.976;24.168;2023-10-13T14:14:44;19.90;;;3.58;;
22007;SDS011;11168;56.976;24.168;2023-10-13T14:17:24;13.13;;;3.60;;
22007;SDS011;11168;56.976;24.168;2023-10-13T14:19:58;16.15;;;3.13;;
22007;SDS011;11168;56.976;24.168;2023-10-13T14:22:26;14.07;;;3.33;;
22007;SDS011;11168;56.976;24.168;2023-10-13T14:24:54;16.45;;;2.90;;
22007;SDS011;11168;56.976;24.168;2023-10-13T14:27:22;15.70;;;3.22;;
22007;SDS011;11168;56.976;24.168;2023-10-13T14:29:50;21.95;;;3.72;;
22007;SDS011;11168;56.976;24.168;2023-10-13T14:32:20;20.73;;;3.97;;
22007;SDS011;11168;56.976;24.168;2023-10-13T14:39:53;23.42;;;3.50;;
22007;SDS011;11168;56.976;24.168;2023-10-13T14:42:27;14.60;;;3.47;;
22007;SDS011;11168;56.976;24.168;2023-10-13T14:44:55;19.65;;;3.95;;
22007;SDS011;11168;56.976;24.168;2023-10-13T14:47:23;20.38;;;4.10;;
22007;SDS011;11168;56.976;24.168;2023-10-13T14:49:54;20.92;;;5.05;;
22007;SDS011;11168;56.976;24.168;2023-10-13T14:52:22;20.50;;;4.60;;
22007;SDS011;11168;56.976;24.168;2023-10-13T14:54:49;15.60;;;4.03;;
22007;SDS011;11168;56.976;24.168;2023-10-13T14:57:21;19.27;;;4.30;;
22007;SDS011;11168;56.976;24.168;2023-10-13T14:59:53;19.02;;;3.63;;
22007;SDS011;11168;56.976;24.168;2023-10-13T15:04:49;20.55;;;4.03;;
22007;SDS011;11168;56.976;24.168;2023-10-13T15:07:17;22.50;;;5.18;;
22007;SDS011;11168;56.976;24.168;2023-10-13T15:09:47;20.35;;;4.47;;
22007;SDS011;11168;56.976;24.168;2023-10-13T15:12:16;19.10;;;4.45;;
22007;SDS011;11168;56.976;24.168;2023-10-13T15:14:50;21.10;;;4.30;;
22007;SDS011;11168;56.976;24.168;2023-10-13T15:17:19;17.95;;;4.55;;
22007;SDS011;11168;56.976;24.168;2023-10-13T15:19:51;18.95;;;4.03;;
22007;SDS011;11168;56.976;24.168;2023-10-13T15:22:18;14.80;;;3.60;;
22007;SDS011;11168;56.976;24.168;2023-10-13T15:24:51;17.05;;;3.72;;
22007;SDS011;11168;56.976;24.168;2023-10-13T15:27:36;20.85;;;4.30;;
22007;SDS011;11168;56.976;24.168;2023-10-13T15:30:08;16.05;;;4.30;;
22007;SDS011;11168;56.976;24.168;2023-10-13T15:32:46;22.35;;;4.28;;
22007;SDS011;11168;56.976;24.168;2023-10-13T15:35:15;18.17;;;4.28;;
22007;SDS011;11168;56.976;24.168;2023-10-13T15:37:44;15.82;;;4.72;;
22007;SDS011;11168;56.976;24.168;2023-10-13T15:40:18;20.92;;;5.80;;
22007;SDS011;11168;56.976;24.168;2023-10-13T15:42:46;21.80;;;4.80;;
22007;SDS011;11168;56.976;24.168;2023-10-13T15:45:13;18.98;;;5.85;;
22007;SDS011;11168;56.976;24.168;2023-10-13T15:47:44;29.17;;;6.00;;
22007;SDS011;11168;56.976;24.168;2023-10-13T15:50:17;32.42;;;6.88;;
22007;SDS011;11168;56.976;24.168;2023-10-13T15:55:15;19.48;;;6.15;;
22007;SDS011;11168;56.976;24.168;2023-10-13T16:00:20;19.80;;;6.22;;